• Join FlightAware (Why Join?)
  • Login
  • US Flag 
01:03AM EDT


 

Airport Tracker/Info


-or-


 

Live Flight TrackerFlight Track Log ✈ ACA831 ✈ 02-May-2013 ✈ CYUL - CYYZ

Flight Track Log - Related Links

Times and Time Zones

All times are in EDT time to prevent confusion due to time zone crossing. See the ACA831 flight status page for this flight to view local times or setup timezone preferences in your user account.

Time Position Orientation Groundspeed Altitude Reporting Facility
EDT Latitude Longitude Course Direction KTS MPH feet Rate Location/Type
04:18PM 45.4790 -73.7370 35° Northeast 155 178 700  Level FlightAware
04:19PM 45.4940 -73.7180 42° Northeast 186 214 1,700 2,400 Climbing FlightAware
04:19PM 45.5120 -73.6950 42° Northeast 222 255 2,900 3,000 Climbing FlightAware
04:19PM 45.5290 -73.6860 20° North 247 284 3,700 4,200 Climbing FlightAware
04:20PM 45.5610 -73.7090 333° Northwest 270 311 5,700 4,260 Climbing FlightAware
04:20PM 45.5750 -73.7300 314° West 275 316 6,900 4,380 Climbing FlightAware
04:21PM 45.5940 -73.7750 301° West 288 331 9,000 4,260 Climbing FlightAware
04:21PM 45.5930 -73.8030 267° West 298 343 10,100 3,000 Climbing FlightAware
04:21PM 45.5700 -73.8860 248° West 355 409 11,800 2,940 Climbing FlightAware
04:22PM 45.5390 -73.9900 247° West 387 445 14,300 2,580 Climbing FlightAware
04:23PM 45.5130 -74.0820 248° West 380 437 15,500 1,920 Climbing FlightAware
04:24PM 45.4870 -74.1740 248° West 386 444 16,900 2,940 Climbing FlightAware
04:24PM 45.4570 -74.2800 248° West 397 457 19,700 3,660 Climbing FlightAware
04:25PM 45.4290 -74.3770 248° West 402 463 22,100 3,240 Climbing FlightAware
04:26PM 45.4030 -74.4950 253° West 416 479 24,300 3,060 Climbing FlightAware
04:26PM 45.3850 -74.6010 256° West 417 480 26,500 2,580 Climbing FlightAware
04:27PM 45.3670 -74.7120 257° West 431 496 27,800 1,020 Climbing FlightAware
04:28PM 45.3470 -74.8320 257° West 438 504 28,000 1,440 Climbing FlightAware
04:28PM 45.3280 -74.9430 256° West 431 496 29,900 3,000 Climbing FlightAware
04:29PM 45.3090 -75.0510 256° West 422 486 32,000 2,700 Climbing FlightAware
04:30PM 45.2880 -75.1750 257° West 416 479 33,800 1,380 Climbing FlightAware
04:31PM 45.2710 -75.2790 257° West 412 474 34,000 120 Climbing FlightAware
04:31PM 45.2510 -75.3940 256° West 407 468 34,000  Level FlightAware
04:32PM 45.2330 -75.4970 256° West 408 470 34,000  Level FlightAware
04:33PM 45.2070 -75.6430 256° West 409 471 34,000  Level FlightAware
04:34PM 45.1890 -75.7460 256° West 409 471 34,000  Level FlightAware
04:34PM 45.1750 -75.8200 255° West 410 472 34,000  Level FlightAware
04:36PM 45.1310 -76.0660 256° West 409 471 34,000  Level FlightAware
04:37PM 45.0833 -76.2333 256° West 410 472 34,000  Level Montreal Center
04:38PM 45.0167 -76.4000 241° Southwest 410 472 34,000  Level Montreal Center
04:39PM 44.9667 -76.5333 242° Southwest 410 472 34,000 -300 Level Montreal Center
04:41PM 44.8860 -76.7338 240° Southwest  Level FlightAware Approximate
04:44PM 44.6833 -77.2000 240° Southwest 390 449 32,400  Level Toronto Center
04:45PM 44.6500 -77.3500 253° West 380 437 31,100 -1,440 Descending Montreal Center
04:46PM 44.6000 -77.4667 240° Southwest 380 437 29,800 -1,380 Descending Montreal Center
04:47PM 44.5187 -77.6686 240° Southwest  Level Estimated
04:47PM 44.5500 -77.5833 239° Southwest 370 426 28,400  Level Montreal Center
04:48PM 44.5535 -77.5456 240° Southwest  Level FlightAware Approximate
04:48PM 44.4833 -77.7000 231° Southwest 360 414 27,000  Level Montreal Center
04:49PM 44.5055 -77.6608 240° Southwest  Level FlightAware Approximate
04:49PM 44.4333 -77.8500 245° Southwest 350 403 25,500  Level Montreal Center
04:50PM 44.4000 -77.9667 248° West 350 403 24,200 -1,080 Descending Montreal Center
04:51PM 44.3667 -78.0667 245° Southwest 340 391 23,400 -1,320 Descending Montreal Center
04:52PM 44.3167 -78.1833 239° Southwest 340 391 21,600 -1,740 Descending Montreal Center
04:53PM 44.2833 -78.3000 248° West 340 391 20,000 -1,680 Descending Montreal Center
04:54PM 44.0093 -78.8721 240° Southwest  Level Estimated
04:54PM 44.2333 -78.4167 239° Southwest 330 380 18,300  Level Montreal Center
04:55PM 44.1833 -78.5333 239° Southwest 320 368 17,100 -1,440 Descending Montreal Center
04:56PM 44.1500 -78.6500 248° West 320 368 15,500 -1,620 Descending Montreal Center
04:57PM 44.1167 -78.7667 248° West 320 368 13,900 -1,200 Descending Montreal Center
04:58PM 44.0667 -78.8500 230° Southwest 310 357 13,100 -960 Descending Montreal Center
04:59PM 44.0333 -78.9667 248° West 310 357 12,000 -1,200 Descending Montreal Center
05:00PM 44.0000 -79.0667 245° Southwest 300 345 10,700 -1,380 Descending Montreal Center
05:01PM 43.9500 -79.1500 230° Southwest 290 334 9,100 -1,680 Descending Toronto Center
05:02PM 43.9167 -79.2333 241° Southwest 280 322 7,200 -1,620 Descending Toronto Center
05:03PM 43.8833 -79.3333 245° Southwest 270 311 5,900 -1,020 Descending Toronto Center
05:09PM 43.6960 -79.6150 245° Southwest 150 173 400 -960 Descending FlightAware